Time;durP1;ratioP1;P1;durP2;ratioP2;P2;SDS_P1;SDS_P2;PMS_P1;PMS_P2;Temp;Humidity;BMP_temperature;BMP_pressure;BME280_temperature;BME280_humidity;BME280_pressure;Samples;Min_cycle;Max_cycle;Signal;HPM_P1;HPM_P2
2023/03/14 00:02:20;;;;;;;1.23;0.30;;;;;;;;;;5047162;28;20087;-75
2023/03/14 00:04:46;;;;;;;5.28;0.95;;;;;;;;;;5043815;28;20363;-75
2023/03/14 00:07:12;;;;;;;2.35;0.82;;;;;;;;;;5044553;28;20052;-75
2023/03/14 00:09:39;;;;;;;0.70;0.20;;;;;;;;;;5047338;28;20122;-74
2023/03/14 00:12:05;;;;;;;0.90;0.20;;;;;;;;;;5042740;28;20029;-74
2023/03/14 00:14:32;;;;;;;1.60;0.10;;;;;;;;;;5045844;28;20033;-73
2023/03/14 00:16:58;;;;;;;0.30;0.10;;;;;;;;;;5043996;28;20040;-74
2023/03/14 00:19:24;;;;;;;0.17;0.00;;;;;;;;;;5044431;28;20041;-74
2023/03/14 00:21:50;;;;;;;0.30;0.00;;;;;;;;;;5047218;28;20039;-74
2023/03/14 00:24:16;;;;;;;0.15;0.00;;;;;;;;;;5044839;28;20037;-74
2023/03/14 00:26:42;;;;;;;0.10;0.00;;;;;;;;;;5048213;28;20035;-75
2023/03/14 00:29:08;;;;;;;0.00;0.00;;;;;;;;;;5044877;28;20738;-74
2023/03/14 00:31:35;;;;;;;0.00;0.00;;;;;;;;;;5045551;28;20029;-75
2023/03/14 00:34:01;;;;;;;0.08;0.00;;;;;;;;;;5046914;28;20056;-75
2023/03/14 00:36:27;;;;;;;0.10;0.00;;;;;;;;;;5046882;28;20074;-75
2023/03/14 00:38:53;;;;;;;2.35;0.10;;;;;;;;;;5042377;28;20044;-75
2023/03/14 00:41:24;;;;;;;0.95;0.20;;;;;;;;;;5026035;28;20037;-75
2023/03/14 00:43:51;;;;;;;1.40;0.30;;;;;;;;;;5044423;28;20045;-75
2023/03/14 00:46:18;;;;;;;1.75;0.20;;;;;;;;;;5046480;28;20163;-75
2023/03/14 00:48:47;;;;;;;2.05;0.20;;;;;;;;;;5043338;28;20037;-75
2023/03/14 00:51:14;;;;;;;1.27;0.20;;;;;;;;;;5042726;28;20044;-75
2023/03/14 00:53:41;;;;;;;1.02;0.20;;;;;;;;;;5045142;28;20033;-75
2023/03/14 00:56:09;;;;;;;1.02;0.28;;;;;;;;;;5046446;28;20083;-74
2023/03/14 00:58:35;;;;;;;1.60;0.30;;;;;;;;;;5041678;28;20025;-75
2023/03/14 01:01:05;;;;;;;2.58;0.60;;;;;;;;;;5039951;28;20032;-75
2023/03/14 01:03:31;;;;;;;1.05;0.30;;;;;;;;;;5035916;28;20060;-75
2023/03/14 01:06:07;;;;;;;4.70;0.22;;;;;;;;;;5047731;28;20032;-75
2023/03/14 01:08:33;;;;;;;1.77;0.50;;;;;;;;;;5047867;28;20033;-75
2023/03/14 01:10:59;;;;;;;1.42;0.20;;;;;;;;;;5041390;28;20040;-75
2023/03/14 01:13:25;;;;;;;1.65;0.20;;;;;;;;;;5044878;28;20473;-75
2023/03/14 01:15:51;;;;;;;2.70;0.30;;;;;;;;;;5046391;28;20083;-75
2023/03/14 01:18:17;;;;;;;1.50;0.20;;;;;;;;;;5037103;28;20037;-75
2023/03/14 01:20:43;;;;;;;1.08;0.32;;;;;;;;;;5042966;28;20112;-74
2023/03/14 01:23:09;;;;;;;1.65;0.40;;;;;;;;;;5043929;28;20539;-75
2023/03/14 01:25:40;;;;;;;2.40;0.50;;;;;;;;;;5046351;28;20037;-75
2023/03/14 01:28:07;;;;;;;2.17;0.30;;;;;;;;;;5047341;28;20052;-75
2023/03/14 01:30:33;;;;;;;1.40;0.63;;;;;;;;;;5045625;28;20028;-75
2023/03/14 01:32:59;;;;;;;4.47;0.50;;;;;;;;;;5045592;28;20037;-75
2023/03/14 01:35:25;;;;;;;0.68;0.20;;;;;;;;;;5046750;28;20084;-75
2023/03/14 01:37:51;;;;;;;0.95;0.20;;;;;;;;;;5046301;28;20104;-75
2023/03/14 01:40:17;;;;;;;1.90;0.10;;;;;;;;;;5048126;28;20059;-75
2023/03/14 01:42:47;;;;;;;1.52;0.30;;;;;;;;;;5046747;28;20960;-75
2023/03/14 01:45:32;;;;;;;1.65;0.47;;;;;;;;;;5041932;28;20091;-75
2023/03/14 01:47:58;;;;;;;1.58;0.65;;;;;;;;;;5046338;28;20083;-75
2023/03/14 01:50:24;;;;;;;1.50;0.52;;;;;;;;;;5050723;28;20765;-75
2023/03/14 01:52:52;;;;;;;2.58;0.60;;;;;;;;;;5046485;28;20028;-75
2023/03/14 01:55:22;;;;;;;1.23;0.40;;;;;;;;;;5041550;28;20033;-75
2023/03/14 01:57:51;;;;;;;1.73;0.50;;;;;;;;;;5044636;28;20061;-75
2023/03/14 02:00:20;;;;;;;0.60;0.10;;;;;;;;;;5046187;28;20462;-75
2023/03/14 02:02:47;;;;;;;0.95;0.20;;;;;;;;;;5028222;28;20029;-75
2023/03/14 02:05:16;;;;;;;1.02;0.40;;;;;;;;;;5045395;28;20048;-75
2023/03/14 02:08:01;;;;;;;0.00;0.00;;;;;;;;;;5042995;28;20474;-74
2023/03/14 02:10:29;;;;;;;0.00;0.00;;;;;;;;;;5040166;28;20107;-74
2023/03/14 02:12:56;;;;;;;0.63;0.10;;;;;;;;;;5044948;28;20069;-74
2023/03/14 02:15:22;;;;;;;1.27;0.20;;;;;;;;;;5045663;28;20041;-74
2023/03/14 02:17:48;;;;;;;0.98;0.22;;;;;;;;;;5044717;28;20029;-75
2023/03/14 02:20:20;;;;;;;2.65;0.40;;;;;;;;;;5027965;28;20049;-75
2023/03/14 02:22:47;;;;;;;2.58;0.50;;;;;;;;;;5043783;28;20577;-75
2023/03/14 02:25:19;;;;;;;2.85;0.52;;;;;;;;;;5046724;28;20044;-75
2023/03/14 02:27:45;;;;;;;0.88;0.20;;;;;;;;;;5044408;28;20037;-74
2023/03/14 02:30:14;;;;;;;2.25;0.40;;;;;;;;;;5031675;28;20044;-74
2023/03/14 02:32:41;;;;;;;0.30;0.10;;;;;;;;;;5030753;28;20383;-75
2023/03/14 02:35:10;;;;;;;0.28;0.00;;;;;;;;;;5025440;28;20048;-75
2023/03/14 02:37:39;;;;;;;0.88;0.10;;;;;;;;;;5028011;28;20029;-76
2023/03/14 02:40:05;;;;;;;0.20;0.10;;;;;;;;;;5046599;28;20037;-75
2023/03/14 02:42:31;;;;;;;0.10;0.00;;;;;;;;;;5046284;28;20053;-75
2023/03/14 02:45:20;;;;;;;0.03;0.00;;;;;;;;;;5050065;28;20048;-75
2023/03/14 02:47:49;;;;;;;0.63;0.10;;;;;;;;;;5043279;28;20470;-75
2023/03/14 02:50:21;;;;;;;1.02;0.30;;;;;;;;;;5046984;28;20037;-75
2023/03/14 02:52:46;;;;;;;3.42;0.25;;;;;;;;;;5050246;28;20060;-75
2023/03/14 02:55:13;;;;;;;2.55;0.20;;;;;;;;;;5039098;28;20576;-75
2023/03/14 02:57:39;;;;;;;2.65;0.30;;;;;;;;;;5042998;28;20037;-75
2023/03/14 03:00:06;;;;;;;0.57;0.08;;;;;;;;;;5047224;28;20045;-75
2023/03/14 03:02:32;;;;;;;0.75;0.10;;;;;;;;;;5050139;28;20025;-75
2023/03/14 03:04:58;;;;;;;1.45;0.20;;;;;;;;;;5042877;28;20036;-75
2023/03/14 03:07:24;;;;;;;0.50;0.10;;;;;;;;;;5053893;28;20040;-76
2023/03/14 03:09:50;;;;;;;0.63;0.10;;;;;;;;;;5045118;28;20038;-76
2023/03/14 03:12:16;;;;;;;0.30;0.08;;;;;;;;;;5029920;28;20036;-75
2023/03/14 03:14:42;;;;;;;0.70;0.30;;;;;;;;;;5049942;28;20402;-75
2023/03/14 03:17:08;;;;;;;0.70;0.20;;;;;;;;;;5031398;28;20108;-76
2023/03/14 03:19:34;;;;;;;1.45;0.20;;;;;;;;;;5046592;28;20380;-75
2023/03/14 03:22:00;;;;;;;0.30;0.10;;;;;;;;;;5050368;28;20040;-76
2023/03/14 03:24:27;;;;;;;3.40;0.10;;;;;;;;;;5050200;28;20080;-76
2023/03/14 03:26:53;;;;;;;0.93;0.13;;;;;;;;;;5053780;28;20112;-76
2023/03/14 03:29:19;;;;;;;1.45;0.20;;;;;;;;;;5050230;28;20045;-76
2023/03/14 03:31:45;;;;;;;0.20;0.03;;;;;;;;;;5048532;28;20051;-76
2023/03/14 03:34:12;;;;;;;1.02;0.10;;;;;;;;;;5049169;28;20045;-76
2023/03/14 03:36:38;;;;;;;4.40;0.38;;;;;;;;;;5031846;28;20033;-76
2023/03/14 03:39:04;;;;;;;3.95;0.22;;;;;;;;;;5029341;28;20030;-76
2023/03/14 03:41:30;;;;;;;1.30;0.20;;;;;;;;;;5026614;28;20025;-76
2023/03/14 03:43:57;;;;;;;1.88;0.30;;;;;;;;;;5024441;28;20060;-76
2023/03/14 03:46:23;;;;;;;1.75;0.20;;;;;;;;;;5049415;28;20088;-76
2023/03/14 03:48:49;;;;;;;0.68;0.13;;;;;;;;;;5048014;28;20039;-76
2023/03/14 03:51:15;;;;;;;2.92;0.20;;;;;;;;;;5024322;28;20036;-76
2023/03/14 03:53:42;;;;;;;2.35;0.30;;;;;;;;;;5028042;28;20719;-76
2023/03/14 03:56:08;;;;;;;2.30;0.20;;;;;;;;;;5027480;28;20025;-76
2023/03/14 03:58:34;;;;;;;2.85;0.30;;;;;;;;;;5043658;28;20999;-75
2023/03/14 04:01:00;;;;;;;0.43;0.20;;;;;;;;;;5048546;28;20108;-76
2023/03/14 04:03:26;;;;;;;1.27;0.30;;;;;;;;;;5022161;28;20498;-76
2023/03/14 04:06:03;;;;;;;1.88;0.40;;;;;;;;;;5031870;28;20025;-76
2023/03/14 04:08:29;;;;;;;1.30;0.30;;;;;;;;;;5042896;28;20128;-75
2023/03/14 04:10:58;;;;;;;2.20;0.80;;;;;;;;;;5046958;28;20025;-76
2023/03/14 04:13:24;;;;;;;2.83;0.93;;;;;;;;;;5045684;28;20129;-76
2023/03/14 04:15:51;;;;;;;3.08;0.70;;;;;;;;;;5028809;28;20107;-76
2023/03/14 04:18:17;;;;;;;1.10;0.50;;;;;;;;;;5048137;28;20083;-76
2023/03/14 04:20:43;;;;;;;1.25;0.20;;;;;;;;;;5048381;28;20029;-76
2023/03/14 04:23:09;;;;;;;1.02;0.30;;;;;;;;;;5044413;28;20867;-76
2023/03/14 04:25:35;;;;;;;1.08;0.30;;;;;;;;;;5047165;28;20035;-76
2023/03/14 04:28:03;;;;;;;1.63;0.35;;;;;;;;;;5027019;28;20041;-76
2023/03/14 04:30:32;;;;;;;1.17;0.40;;;;;;;;;;5031697;28;20033;-76
2023/03/14 04:32:58;;;;;;;0.38;0.20;;;;;;;;;;5027097;28;20056;-76
2023/03/14 04:35:24;;;;;;;1.08;0.50;;;;;;;;;;5047703;28;20029;-76
2023/03/14 04:37:51;;;;;;;1.10;0.22;;;;;;;;;;5019898;28;20040;-76
2023/03/14 04:40:18;;;;;;;1.83;0.20;;;;;;;;;;5049304;28;20458;-76
2023/03/14 04:42:44;;;;;;;1.30;0.70;;;;;;;;;;5029961;28;20075;-76
2023/03/14 04:45:10;;;;;;;1.13;0.20;;;;;;;;;;5026789;28;20447;-76
2023/03/14 04:47:36;;;;;;;1.85;0.30;;;;;;;;;;5048019;28;20570;-76
2023/03/14 04:50:02;;;;;;;2.42;0.38;;;;;;;;;;5050898;28;20076;-76
2023/03/14 04:52:28;;;;;;;2.78;0.40;;;;;;;;;;5046432;28;20040;-76
2023/03/14 04:54:54;;;;;;;10.55;6.57;;;;;;;;;;5047387;28;20036;-76
2023/03/14 04:57:20;;;;;;;2.28;0.60;;;;;;;;;;5045986;28;20083;-76
2023/03/14 04:59:46;;;;;;;2.17;0.28;;;;;;;;;;5040118;28;20061;-76
2023/03/14 05:02:12;;;;;;;1.67;0.55;;;;;;;;;;5048049;28;20083;-76
2023/03/14 05:04:38;;;;;;;3.03;0.30;;;;;;;;;;5037238;28;20033;-76
2023/03/14 05:07:04;;;;;;;2.80;0.40;;;;;;;;;;5050050;28;20086;-76
2023/03/14 05:09:30;;;;;;;4.30;0.40;;;;;;;;;;5050636;28;20086;-76
2023/03/14 05:11:56;;;;;;;2.40;0.40;;;;;;;;;;5049281;28;20459;-76
2023/03/14 05:14:22;;;;;;;3.28;0.80;;;;;;;;;;5044744;28;20028;-76
2023/03/14 05:16:48;;;;;;;2.28;0.60;;;;;;;;;;5048291;28;20359;-76
2023/03/14 05:19:14;;;;;;;3.20;0.68;;;;;;;;;;5043926;28;20033;-76
2023/03/14 05:21:40;;;;;;;2.83;0.85;;;;;;;;;;5045161;28;20036;-76
2023/03/14 05:24:06;;;;;;;0.40;0.15;;;;;;;;;;5046381;28;20036;-76
2023/03/14 05:26:32;;;;;;;1.80;0.60;;;;;;;;;;5028832;28;20064;-76
2023/03/14 05:28:58;;;;;;;4.10;0.93;;;;;;;;;;5026740;28;20069;-76
2023/03/14 05:31:24;;;;;;;2.42;0.90;;;;;;;;;;5043739;28;20117;-76
2023/03/14 05:33:50;;;;;;;1.75;0.45;;;;;;;;;;5027322;28;20036;-76
2023/03/14 05:36:16;;;;;;;3.42;0.90;;;;;;;;;;5041530;28;20029;-76
2023/03/14 05:38:42;;;;;;;2.03;0.80;;;;;;;;;;5030680;28;20029;-75
2023/03/14 05:41:08;;;;;;;2.45;0.50;;;;;;;;;;5021457;28;20041;-76
2023/03/14 05:43:34;;;;;;;1.42;0.40;;;;;;;;;;5030122;28;20107;-76
2023/03/14 05:46:00;;;;;;;4.68;0.70;;;;;;;;;;5044786;28;20041;-76
2023/03/14 05:48:26;;;;;;;2.45;0.40;;;;;;;;;;5047251;28;20033;-76
2023/03/14 05:50:56;;;;;;;2.83;0.60;;;;;;;;;;5029311;28;20339;-76
2023/03/14 05:53:22;;;;;;;3.22;0.90;;;;;;;;;;5048051;28;20470;-76
2023/03/14 05:55:51;;;;;;;2.97;0.60;;;;;;;;;;5039821;28;20017;-76
2023/03/14 05:58:17;;;;;;;3.58;1.27;;;;;;;;;;5042951;28;20040;-76
2023/03/14 06:00:43;;;;;;;3.92;1.40;;;;;;;;;;5030743;28;20033;-76
2023/03/14 06:03:09;;;;;;;4.40;1.00;;;;;;;;;;5048227;28;20545;-76
2023/03/14 06:05:35;;;;;;;4.07;1.73;;;;;;;;;;5051022;28;20104;-76
2023/03/14 06:08:01;;;;;;;7.65;3.60;;;;;;;;;;5052997;28;20040;-76
2023/03/14 06:10:27;;;;;;;1.92;0.80;;;;;;;;;;5046784;28;20020;-76
2023/03/14 06:12:53;;;;;;;4.38;1.60;;;;;;;;;;5038724;28;20068;-76
2023/03/14 06:15:19;;;;;;;1.75;0.70;;;;;;;;;;5050590;28;20116;-76
2023/03/14 06:17:45;;;;;;;3.90;0.70;;;;;;;;;;5047995;28;20068;-76
2023/03/14 06:20:11;;;;;;;2.42;0.82;;;;;;;;;;5042024;28;20102;-76
2023/03/14 06:22:39;;;;;;;2.25;0.30;;;;;;;;;;5049707;28;20047;-76
2023/03/14 06:25:05;;;;;;;1.17;0.40;;;;;;;;;;5054587;28;20450;-76
2023/03/14 06:27:31;;;;;;;0.52;0.10;;;;;;;;;;5039935;28;20077;-76
2023/03/14 06:29:57;;;;;;;3.25;1.30;;;;;;;;;;5029182;28;20126;-76
2023/03/14 06:32:23;;;;;;;1.05;0.40;;;;;;;;;;5032901;28;20041;-76
2023/03/14 06:34:49;;;;;;;0.10;0.10;;;;;;;;;;5051458;28;20055;-76
2023/03/14 06:37:15;;;;;;;5.30;0.50;;;;;;;;;;5049914;28;20028;-76
2023/03/14 06:39:41;;;;;;;2.72;0.60;;;;;;;;;;5043808;28;20941;-76
2023/03/14 06:42:07;;;;;;;3.45;0.65;;;;;;;;;;5047924;28;20050;-76
2023/03/14 06:44:33;;;;;;;1.27;0.35;;;;;;;;;;5045013;28;20025;-76
2023/03/14 06:46:59;;;;;;;2.92;0.40;;;;;;;;;;5051602;28;20036;-76
2023/03/14 06:49:25;;;;;;;4.95;0.70;;;;;;;;;;5044546;28;20541;-76
2023/03/14 06:51:51;;;;;;;1.45;0.30;;;;;;;;;;5050811;28;20032;-76
2023/03/14 06:54:17;;;;;;;1.52;0.50;;;;;;;;;;5038341;28;20026;-76
2023/03/14 06:56:43;;;;;;;6.10;1.50;;;;;;;;;;5043986;28;20082;-76
2023/03/14 06:59:09;;;;;;;3.47;1.08;;;;;;;;;;5047290;28;20538;-76
2023/03/14 07:01:36;;;;;;;3.63;1.30;;;;;;;;;;5050809;28;20597;-76
2023/03/14 07:04:02;;;;;;;3.45;0.50;;;;;;;;;;5048536;28;20028;-76
2023/03/14 07:06:31;;;;;;;4.57;0.82;;;;;;;;;;5047410;28;20041;-76
2023/03/14 07:08:57;;;;;;;1.58;0.57;;;;;;;;;;5054201;28;20033;-76
2023/03/14 07:11:23;;;;;;;4.22;0.75;;;;;;;;;;5048193;28;20033;-76
2023/03/14 07:13:49;;;;;;;2.53;0.60;;;;;;;;;;5050241;28;20057;-76
2023/03/14 07:16:15;;;;;;;1.35;0.40;;;;;;;;;;5050244;28;20057;-76
2023/03/14 07:18:42;;;;;;;2.13;0.30;;;;;;;;;;5049797;28;20025;-76
2023/03/14 07:21:09;;;;;;;2.55;0.77;;;;;;;;;;5053111;28;20110;-76
2023/03/14 07:23:35;;;;;;;3.17;0.65;;;;;;;;;;5049872;28;20117;-76
2023/03/14 07:26:01;;;;;;;0.95;0.20;;;;;;;;;;5054642;28;20139;-76
2023/03/14 07:28:27;;;;;;;2.78;0.10;;;;;;;;;;5050525;28;20055;-76
2023/03/14 07:30:54;;;;;;;1.48;0.40;;;;;;;;;;5050035;28;20025;-76
2023/03/14 07:33:20;;;;;;;1.45;0.20;;;;;;;;;;5047989;28;20079;-76
2023/03/14 07:35:49;;;;;;;3.58;0.20;;;;;;;;;;5046946;28;20639;-76
2023/03/14 07:38:15;;;;;;;3.53;0.65;;;;;;;;;;5048625;28;20534;-76
2023/03/14 07:40:41;;;;;;;3.58;1.17;;;;;;;;;;5042201;28;20087;-76
2023/03/14 07:43:07;;;;;;;6.75;1.83;;;;;;;;;;5048894;28;20164;-76
2023/03/14 07:45:33;;;;;;;5.82;1.92;;;;;;;;;;5049658;28;20108;-76
2023/03/14 07:48:01;;;;;;;7.05;3.00;;;;;;;;;;5046558;28;20044;-76
2023/03/14 07:50:27;;;;;;;3.60;1.50;;;;;;;;;;5047517;28;20036;-76
2023/03/14 07:52:54;;;;;;;6.25;0.75;;;;;;;;;;5050567;28;20054;-76
2023/03/14 07:55:20;;;;;;;3.25;0.90;;;;;;;;;;5051048;28;20029;-76
2023/03/14 07:57:46;;;;;;;4.53;1.40;;;;;;;;;;5049968;28;20498;-76
2023/03/14 08:00:13;;;;;;;0.75;0.22;;;;;;;;;;5048737;28;20037;-75
2023/03/14 08:02:40;;;;;;;2.53;0.40;;;;;;;;;;5050377;28;20818;-75
2023/03/14 08:05:06;;;;;;;3.80;0.88;;;;;;;;;;5045581;28;20085;-76
2023/03/14 08:07:32;;;;;;;2.85;1.27;;;;;;;;;;5043815;28;20048;-76
2023/03/14 08:09:58;;;;;;;1.85;0.40;;;;;;;;;;5030038;28;20381;-76
2023/03/14 08:12:24;;;;;;;2.15;0.50;;;;;;;;;;5048582;28;20028;-76
2023/03/14 08:14:50;;;;;;;1.75;0.55;;;;;;;;;;5048130;28;20039;-76
2023/03/14 08:17:16;;;;;;;0.98;0.20;;;;;;;;;;5048788;28;20355;-76
2023/03/14 08:19:42;;;;;;;2.58;0.52;;;;;;;;;;5050126;28;20064;-75
2023/03/14 08:22:08;;;;;;;2.83;0.40;;;;;;;;;;5047997;28;20082;-76
2023/03/14 08:24:34;;;;;;;3.13;0.45;;;;;;;;;;5043498;28;20029;-76
2023/03/14 08:27:01;;;;;;;1.17;0.30;;;;;;;;;;5048223;28;20033;-76
2023/03/14 08:29:27;;;;;;;3.45;0.80;;;;;;;;;;5051132;28;20029;-76
2023/03/14 08:31:54;;;;;;;1.95;0.68;;;;;;;;;;5047608;28;20033;-76
2023/03/14 08:34:20;;;;;;;1.90;0.30;;;;;;;;;;5034115;28;20904;-76
2023/03/14 08:36:46;;;;;;;2.13;0.57;;;;;;;;;;5050825;28;20029;-75
2023/03/14 08:39:12;;;;;;;2.15;0.77;;;;;;;;;;5048376;28;20793;-76
2023/03/14 08:41:41;;;;;;;1.67;0.80;;;;;;;;;;5046513;28;20052;-76
2023/03/14 08:44:11;;;;;;;2.28;0.70;;;;;;;;;;5042971;28;20040;-76
2023/03/14 08:46:37;;;;;;;4.40;1.40;;;;;;;;;;5046226;28;20100;-76
2023/03/14 08:49:03;;;;;;;4.50;1.00;;;;;;;;;;5021286;28;20550;-76
2023/03/14 08:51:29;;;;;;;3.72;1.08;;;;;;;;;;5046069;28;20033;-76
2023/03/14 08:53:55;;;;;;;3.85;1.40;;;;;;;;;;5049999;28;20025;-76
2023/03/14 08:56:21;;;;;;;6.78;2.90;;;;;;;;;;5042761;28;20033;-75
2023/03/14 08:58:47;;;;;;;9.38;3.28;;;;;;;;;;5047321;28;20040;-76
2023/03/14 09:01:13;;;;;;;5.47;2.90;;;;;;;;;;5046835;28;20037;-76
2023/03/14 09:03:39;;;;;;;7.05;1.75;;;;;;;;;;5029936;28;20067;-76
2023/03/14 09:06:06;;;;;;;6.25;2.22;;;;;;;;;;5048821;28;20037;-76
2023/03/14 09:08:33;;;;;;;7.57;2.20;;;;;;;;;;5048149;28;20078;-75
2023/03/14 09:10:59;;;;;;;7.68;2.00;;;;;;;;;;5055801;28;20136;-76
2023/03/14 09:13:25;;;;;;;8.40;2.80;;;;;;;;;;5051384;28;20105;-76
2023/03/14 09:15:52;;;;;;;5.40;1.98;;;;;;;;;;5025466;28;20029;-76
2023/03/14 09:18:18;;;;;;;5.43;2.20;;;;;;;;;;5044291;28;20100;-76
2023/03/14 09:20:44;;;;;;;6.72;2.28;;;;;;;;;;5050495;28;20078;-76
2023/03/14 09:23:10;;;;;;;7.68;2.63;;;;;;;;;;5027996;28;20040;-76
2023/03/14 09:25:36;;;;;;;7.38;2.50;;;;;;;;;;5046957;28;20136;-76
2023/03/14 09:28:02;;;;;;;9.05;3.95;;;;;;;;;;5027477;28;20794;-76
2023/03/14 09:30:28;;;;;;;7.78;3.67;;;;;;;;;;5028322;28;20151;-75
2023/03/14 09:32:54;;;;;;;17.38;9.30;;;;;;;;;;5047033;28;20100;-76
2023/03/14 09:35:20;;;;;;;11.05;6.32;;;;;;;;;;5030863;28;20123;-75
2023/03/14 09:37:46;;;;;;;8.90;2.50;;;;;;;;;;5046637;28;20040;-76
2023/03/14 09:40:15;;;;;;;4.00;1.30;;;;;;;;;;5048159;28;20044;-76
2023/03/14 09:42:41;;;;;;;8.10;5.43;;;;;;;;;;5029830;28;20045;-76
2023/03/14 09:45:12;;;;;;;6.35;3.25;;;;;;;;;;5023849;28;20048;-76
2023/03/14 09:47:38;;;;;;;5.20;2.03;;;;;;;;;;5050135;28;20146;-76
2023/03/14 09:50:06;;;;;;;9.55;4.25;;;;;;;;;;5045980;28;20108;-76
2023/03/14 09:52:34;;;;;;;8.93;4.75;;;;;;;;;;5043697;28;20032;-76
2023/03/14 09:55:03;;;;;;;10.23;4.28;;;;;;;;;;5027846;28;20477;-76
2023/03/14 09:57:29;;;;;;;6.18;2.17;;;;;;;;;;5046926;28;20029;-75
2023/03/14 10:00:04;;;;;;;2.33;0.90;;;;;;;;;;5029585;28;20041;-76
2023/03/14 10:02:34;;;;;;;3.80;0.82;;;;;;;;;;5042489;28;20478;-76
2023/03/14 10:05:01;;;;;;;3.90;0.70;;;;;;;;;;5046301;28;20033;-76
2023/03/14 10:07:31;;;;;;;2.88;0.82;;;;;;;;;;5047260;28;20424;-76
2023/03/14 10:09:57;;;;;;;1.65;0.60;;;;;;;;;;5044113;28;20132;-76
2023/03/14 10:12:34;;;;;;;2.00;0.60;;;;;;;;;;5042630;28;20033;-76
2023/03/14 10:15:03;;;;;;;3.70;0.50;;;;;;;;;;5045562;28;20033;-76
2023/03/14 10:17:30;;;;;;;2.50;0.47;;;;;;;;;;5022328;28;20033;-76
2023/03/14 10:19:56;;;;;;;3.83;0.40;;;;;;;;;;5023028;28;20104;-76
2023/03/14 10:22:23;;;;;;;4.50;1.20;;;;;;;;;;5053620;28;20040;-76
2023/03/14 10:24:54;;;;;;;2.90;0.95;;;;;;;;;;5042859;28;20112;-76
2023/03/14 10:27:21;;;;;;;6.47;1.98;;;;;;;;;;5018445;28;20087;-76
2023/03/14 10:29:58;;;;;;;4.80;1.58;;;;;;;;;;5051958;28;20025;-75
2023/03/14 10:32:29;;;;;;;1.75;0.57;;;;;;;;;;5045874;28;20036;-76
2023/03/14 10:35:07;;;;;;;4.43;0.68;;;;;;;;;;5028622;28;20096;-76
2023/03/14 10:37:33;;;;;;;4.13;0.80;;;;;;;;;;5041288;28;20076;-76
2023/03/14 10:40:07;;;;;;;7.30;1.52;;;;;;;;;;5036336;28;20394;-76
2023/03/14 10:42:41;;;;;;;6.18;1.40;;;;;;;;;;5044446;28;20188;-76
2023/03/14 10:45:22;;;;;;;5.68;1.50;;;;;;;;;;5043844;28;20573;-75
2023/03/14 10:47:50;;;;;;;6.90;1.05;;;;;;;;;;5045295;28;20799;-76
2023/03/14 10:50:25;;;;;;;7.30;1.58;;;;;;;;;;5052992;28;20032;-76
2023/03/14 10:52:52;;;;;;;7.38;1.40;;;;;;;;;;5048929;28;20087;-75
2023/03/14 10:55:18;;;;;;;3.38;0.73;;;;;;;;;;5050214;28;20044;-76
2023/03/14 10:57:44;;;;;;;4.97;0.77;;;;;;;;;;5050211;28;20033;-76
2023/03/14 11:00:22;;;;;;;3.40;0.65;;;;;;;;;;5052383;28;20037;-76
2023/03/14 11:03:06;;;;;;;1.30;0.38;;;;;;;;;;5050049;28;20078;-76
2023/03/14 11:05:41;;;;;;;2.88;0.82;;;;;;;;;;5051401;28;20035;-76
2023/03/14 11:08:08;;;;;;;4.75;2.20;;;;;;;;;;5047503;28;20128;-76
2023/03/14 11:10:37;;;;;;;7.47;2.80;;;;;;;;;;5048953;28;20081;-76
2023/03/14 11:13:09;;;;;;;4.07;1.88;;;;;;;;;;5047787;28;20032;-76
2023/03/14 11:15:38;;;;;;;2.95;0.80;;;;;;;;;;5048042;28;20100;-76
2023/03/14 11:18:04;;;;;;;2.95;1.30;;;;;;;;;;5045880;28;20044;-76
2023/03/14 11:20:39;;;;;;;1.90;0.50;;;;;;;;;;5043888;28;20024;-76
2023/03/14 11:23:14;;;;;;;2.58;0.80;;;;;;;;;;5056338;28;20041;-76
2023/03/14 11:25:46;;;;;;;3.38;1.52;;;;;;;;;;5050874;28;20041;-76
2023/03/14 11:28:15;;;;;;;4.93;1.92;;;;;;;;;;5047734;28;20074;-76
2023/03/14 11:30:47;;;;;;;6.47;1.60;;;;;;;;;;5052859;28;20024;-76
2023/03/14 11:33:18;;;;;;;5.55;1.77;;;;;;;;;;5045455;28;20754;-76
2023/03/14 11:35:51;;;;;;;3.50;1.13;;;;;;;;;;5044395;28;20022;-76
2023/03/14 11:38:26;;;;;;;4.20;0.77;;;;;;;;;;5052385;28;20487;-76
2023/03/14 11:40:54;;;;;;;4.43;1.50;;;;;;;;;;5030644;28;20032;-76
2023/03/14 11:43:26;;;;;;;9.68;5.57;;;;;;;;;;5030996;28;20056;-76
2023/03/14 11:46:19;;;;;;;3.08;0.70;;;;;;;;;;5055461;28;20024;-76
2023/03/14 11:49:00;;;;;;;3.22;0.50;;;;;;;;;;5026235;28;20128;-76
2023/03/14 11:51:39;;;;;;;3.42;1.00;;;;;;;;;;5047267;28;20041;-76
2023/03/14 11:54:14;;;;;;;7.72;2.72;;;;;;;;;;5050056;28;20029;-76
2023/03/14 11:56:58;;;;;;;9.73;4.95;;;;;;;;;;5052507;28;20041;-76
2023/03/14 12:00:04;;;;;;;5.40;2.13;;;;;;;;;;5049349;28;20051;-76
2023/03/14 12:02:45;;;;;;;4.57;1.77;;;;;;;;;;5039574;28;20072;-76
2023/03/14 12:05:18;;;;;;;5.72;1.75;;;;;;;;;;5020763;28;20036;-76
2023/03/14 12:08:03;;;;;;;2.10;0.60;;;;;;;;;;5024547;28;20065;-76
2023/03/14 12:10:31;;;;;;;6.85;3.00;;;;;;;;;;5048351;28;20037;-76
2023/03/14 12:13:03;;;;;;;5.57;2.20;;;;;;;;;;5049455;28;20063;-76
2023/03/14 12:15:30;;;;;;;5.00;2.00;;;;;;;;;;5047466;28;20032;-76
2023/03/14 12:17:59;;;;;;;11.75;5.88;;;;;;;;;;5046647;28;20080;-76
2023/03/14 12:20:26;;;;;;;5.57;2.10;;;;;;;;;;5047502;28;20530;-76
2023/03/14 12:22:52;;;;;;;4.43;1.75;;;;;;;;;;5031038;28;20040;-75
2023/03/14 12:25:19;;;;;;;2.47;0.50;;;;;;;;;;5026941;28;20044;-76
2023/03/14 12:27:45;;;;;;;3.33;1.00;;;;;;;;;;5046397;28;20055;-76
2023/03/14 12:30:34;;;;;;;3.17;1.02;;;;;;;;;;5026563;28;20490;-76
2023/03/14 12:33:20;;;;;;;1.88;0.70;;;;;;;;;;5043665;28;20041;-76
2023/03/14 12:35:50;;;;;;;1.42;0.50;;;;;;;;;;5047036;28;20086;-76
2023/03/14 12:38:32;;;;;;;3.10;1.08;;;;;;;;;;5048593;28;20032;-76
2023/03/14 12:41:17;;;;;;;3.67;1.52;;;;;;;;;;5047849;28;20123;-76
2023/03/14 12:43:44;;;;;;;6.72;3.63;;;;;;;;;;5046847;28;20059;-76
2023/03/14 12:46:27;;;;;;;3.88;1.60;;;;;;;;;;5028905;28;20056;-76
2023/03/14 12:49:11;;;;;;;6.35;3.05;;;;;;;;;;5046893;28;20044;-76
2023/03/14 12:51:39;;;;;;;5.60;3.60;;;;;;;;;;5029399;28;20055;-76
2023/03/14 12:54:25;;;;;;;5.07;3.10;;;;;;;;;;5048025;28;20041;-76
2023/03/14 12:56:58;;;;;;;4.45;2.22;;;;;;;;;;5051556;28;20126;-76
2023/03/14 12:59:37;;;;;;;4.10;2.30;;;;;;;;;;5021116;28;20037;-76
2023/03/14 13:02:24;;;;;;;7.63;3.35;;;;;;;;;;5027854;28;20033;-76
2023/03/14 13:05:05;;;;;;;6.10;3.70;;;;;;;;;;5015712;28;20041;-76
2023/03/14 13:07:47;;;;;;;2.40;1.00;;;;;;;;;;5031634;28;20036;-76
2023/03/14 13:10:13;;;;;;;;;;;;;;;;;;5028809;28;20079;-76
2023/03/14 13:12:44;;;;;;;2.67;0.50;;;;;;;;;;5044213;28;20535;-76
2023/03/14 13:15:37;;;;;;;1.92;0.70;;;;;;;;;;5047980;28;20124;-76
2023/03/14 13:18:09;;;;;;;1.63;0.68;;;;;;;;;;5025348;28;20897;-76
2023/03/14 13:20:37;;;;;;;3.53;1.58;;;;;;;;;;5028646;28;20056;-76
2023/03/14 13:23:03;;;;;;;2.63;0.88;;;;;;;;;;5008317;28;20053;-76
2023/03/14 13:25:30;;;;;;;3.35;0.40;;;;;;;;;;5027127;28;20029;-76
2023/03/14 13:27:57;;;;;;;2.63;1.10;;;;;;;;;;5006871;28;20495;-76
2023/03/14 13:30:36;;;;;;;4.38;1.40;;;;;;;;;;5027776;28;20116;-76
2023/03/14 13:33:03;;;;;;;2.63;0.85;;;;;;;;;;5025459;28;20050;-76
2023/03/14 13:35:38;;;;;;;2.47;1.00;;;;;;;;;;5009490;28;20243;-76
2023/03/14 13:38:04;;;;;;;3.53;1.27;;;;;;;;;;5008385;28;20076;-76
2023/03/14 13:40:33;;;;;;;2.22;0.50;;;;;;;;;;5027592;28;20064;-76
2023/03/14 13:43:00;;;;;;;1.48;0.65;;;;;;;;;;5024675;28;20582;-76
2023/03/14 13:45:26;;;;;;;3.47;1.27;;;;;;;;;;5025044;28;20037;-76
2023/03/14 13:47:52;;;;;;;2.75;1.00;;;;;;;;;;5006646;28;20059;-76
2023/03/14 13:50:19;;;;;;;3.38;1.17;;;;;;;;;;5051013;28;20028;-75
2023/03/14 13:52:46;;;;;;;2.35;0.85;;;;;;;;;;5029632;28;20029;-76
2023/03/14 13:55:18;;;;;;;1.85;0.57;;;;;;;;;;5050184;28;20163;-76
2023/03/14 13:57:46;;;;;;;9.13;4.95;;;;;;;;;;5050484;28;20036;-76
2023/03/14 14:00:19;;;;;;;3.28;1.13;;;;;;;;;;5045842;28;20045;-76
2023/03/14 14:02:45;;;;;;;5.72;2.50;;;;;;;;;;5051600;28;20020;-76
2023/03/14 14:05:12;;;;;;;6.75;3.33;;;;;;;;;;5044745;28;20048;-76
2023/03/14 14:07:39;;;;;;;5.68;2.33;;;;;;;;;;5047365;28;20028;-76
2023/03/14 14:10:05;;;;;;;6.50;3.70;;;;;;;;;;5022275;28;20123;-76
2023/03/14 14:12:37;;;;;;;3.45;1.40;;;;;;;;;;5024414;28;20041;-76
2023/03/14 14:15:14;;;;;;;8.90;3.45;;;;;;;;;;5046482;28;20052;-76
2023/03/14 14:17:46;;;;;;;8.63;3.65;;;;;;;;;;5046629;28;20034;-75
2023/03/14 14:20:19;;;;;;;8.13;4.40;;;;;;;;;;5025341;28;20552;-76
2023/03/14 14:22:45;;;;;;;8.75;5.25;;;;;;;;;;5047800;28;20025;-76
2023/03/14 14:25:14;;;;;;;12.88;7.13;;;;;;;;;;5046593;28;20033;-76
2023/03/14 14:27:42;;;;;;;4.63;1.75;;;;;;;;;;5052750;28;20033;-76
2023/03/14 14:30:17;;;;;;;5.63;2.50;;;;;;;;;;5051898;28;20037;-76
2023/03/14 14:32:44;;;;;;;5.68;2.38;;;;;;;;;;5027383;28;20033;-76
2023/03/14 14:35:22;;;;;;;5.97;2.72;;;;;;;;;;5052724;28;20087;-76
2023/03/14 14:37:48;;;;;;;5.38;3.00;;;;;;;;;;5026604;28;20103;-76
2023/03/14 14:40:22;;;;;;;5.57;2.20;;;;;;;;;;5061000;28;20041;-76
2023/03/14 14:42:49;;;;;;;4.45;1.13;;;;;;;;;;5048398;28;20045;-76
2023/03/14 14:45:18;;;;;;;3.35;0.52;;;;;;;;;;5049368;28;20120;-76
2023/03/14 14:47:50;;;;;;;4.22;0.80;;;;;;;;;;5026655;28;20051;-76
2023/03/14 14:50:28;;;;;;;2.85;0.70;;;;;;;;;;5048839;28;20036;-76
2023/03/14 14:52:58;;;;;;;3.60;0.60;;;;;;;;;;5051387;28;20037;-76